Time,TemperatureF,DewpointF,PressureIn,WindDirection,WindDirectionDegrees,WindSpeedMPH,WindSpeedGustMPH,Humidity,HourlyPrecipIn,Conditions,Clouds,dailyrainin,SoftwareType,DateUTC
2013-03-18 00:00:00,62.1,60.4,30.07,ENE,65,0.0,0.0,94,0.07,,CLR,0.00,VWS V14.01,2013-03-18 04:00:00,
2013-03-18 00:01:00,62.1,60.4,30.07,ENE,66,0.0,0.0,94,0.07,,CLR,0.00,VWS V14.01,2013-03-18 04:01:00,
2013-03-18 00:02:00,62.1,60.4,30.07,ENE,66,0.0,0.0,94,0.07,,CLR,0.00,VWS V14.01,2013-03-18 04:02:00,
2013-03-18 00:07:00,62.0,60.3,30.07,ENE,67,0.0,0.0,94,0.07,,CLR,0.00,VWS V14.01,2013-03-18 04:07:00,
2013-03-18 00:08:00,62.0,60.3,30.07,ENE,67,0.0,0.0,94,0.07,,CLR,0.00,VWS V14.01,2013-03-18 04:08:00,
2013-03-18 00:13:00,62.0,60.3,30.07,ENE,67,0.0,0.0,94,0.07,,CLR,0.00,VWS V14.01,2013-03-18 04:13:00,
2013-03-18 00:18:00,62.0,60.3,30.07,ENE,67,0.0,0.0,94,0.07,,CLR,0.00,VWS V14.01,2013-03-18 04:18:00,
2013-03-18 00:23:00,61.9,60.2,30.06,ENE,67,0.0,0.0,94,0.07,,CLR,0.00,VWS V14.01,2013-03-18 04:23:00,
2013-03-18 00:28:00,61.7,60.0,30.05,ENE,67,0.0,0.0,94,0.07,,CLR,0.00,VWS V14.01,2013-03-18 04:28:00,
2013-03-18 00:33:00,61.6,59.9,30.05,ENE,67,0.0,0.0,94,0.03,,CLR,0.00,VWS V14.01,2013-03-18 04:33:00,
2013-03-18 00:39:00,61.6,59.9,30.05,ENE,67,0.0,0.0,94,0.03,,CLR,0.00,VWS V14.01,2013-03-18 04:39:00,
2013-03-18 00:44:00,61.7,60.0,30.05,ENE,67,0.0,0.0,94,0.03,,CLR,0.00,VWS V14.01,2013-03-18 04:44:00,
2013-03-18 00:49:00,61.7,60.0,30.04,ENE,67,0.0,0.0,94,0.03,,CLR,0.00,VWS V14.01,2013-03-18 04:49:00,
2013-03-18 00:54:00,61.7,60.0,30.04,ENE,67,0.0,0.0,94,0.03,,CLR,0.00,VWS V14.01,2013-03-18 04:54:00,
2013-03-18 00:59:00,61.7,60.0,30.04,East,100,0.0,0.0,94,0.03,,CLR,0.00,VWS V14.01,2013-03-18 04:59:00,
2013-03-18 01:04:00,61.4,59.7,30.04,East,96,0.0,0.0,94,0.00,,CLR,0.00,VWS V14.01,2013-03-18 05:04:00,
2013-03-18 01:09:00,61.2,59.5,30.04,East,96,0.0,0.0,94,0.00,,CLR,0.00,VWS V14.01,2013-03-18 05:09:00,
2013-03-18 01:14:00,61.0,59.0,30.03,East,101,0.0,0.0,93,0.00,,CLR,0.00,VWS V14.01,2013-03-18 05:14:00,
2013-03-18 01:19:00,60.9,58.9,30.03,ESE,102,0.0,0.0,93,0.00,,CLR,0.00,VWS V14.01,2013-03-18 05:19:00,
2013-03-18 01:24:00,60.8,58.8,30.03,ESE,119,0.0,4.0,93,0.00,,CLR,0.00,VWS V14.01,2013-03-18 05:24:00,
2013-03-18 01:29:00,60.7,58.4,30.03,ESE,120,0.0,4.0,92,0.00,,CLR,0.00,VWS V14.01,2013-03-18 05:29:00,
2013-03-18 01:35:00,60.6,58.3,30.03,ESE,120,0.0,0.0,92,0.00,,CLR,0.00,VWS V14.01,2013-03-18 05:35:00,
2013-03-18 01:40:00,60.4,58.1,30.03,ESE,119,0.0,0.0,92,0.00,,CLR,0.00,VWS V14.01,2013-03-18 05:40:00,
2013-03-18 01:45:00,60.3,58.3,30.03,ESE,120,0.0,0.0,93,0.00,,CLR,0.00,VWS V14.01,2013-03-18 05:45:00,
2013-03-18 01:50:00,60.1,58.1,30.03,ESE,119,0.0,0.0,93,0.00,,CLR,0.00,VWS V14.01,2013-03-18 05:50:00,
2013-03-18 01:55:00,59.9,58.2,30.03,ESE,119,0.0,0.0,94,0.00,,CLR,0.00,VWS V14.01,2013-03-18 05:55:00,
2013-03-18 02:00:00,59.8,58.1,30.03,ESE,119,0.0,0.0,94,0.00,,CLR,0.00,VWS V14.01,2013-03-18 06:00:00,
2013-03-18 02:05:00,59.9,58.2,30.03,ESE,120,0.0,0.0,94,0.00,,CLR,0.00,VWS V14.01,2013-03-18 06:05:00,
2013-03-18 02:10:00,59.9,58.5,30.03,ESE,119,0.0,0.0,95,0.00,,CLR,0.00,VWS V14.01,2013-03-18 06:10:00,
2013-03-18 02:15:00,60.0,58.6,30.02,ESE,120,0.0,0.0,95,0.00,,CLR,0.00,VWS V14.01,2013-03-18 06:15:00,
2013-03-18 02:20:00,60.0,58.3,30.03,ESE,120,0.0,0.0,94,0.00,,CLR,0.00,VWS V14.01,2013-03-18 06:20:00,
2013-03-18 02:25:00,60.1,58.7,30.03,ESE,119,0.0,0.0,95,0.00,,CLR,0.00,VWS V14.01,2013-03-18 06:25:00,
2013-03-18 02:30:00,60.0,58.6,30.03,ESE,120,0.0,0.0,95,0.00,,CLR,0.00,VWS V14.01,2013-03-18 06:30:00,
2013-03-18 02:35:00,59.9,58.5,30.03,ESE,120,0.0,0.0,95,0.00,,CLR,0.00,VWS V14.01,2013-03-18 06:35:00,
2013-03-18 02:40:00,59.9,58.5,30.02,ESE,120,0.0,0.0,95,0.00,,CLR,0.00,VWS V14.01,2013-03-18 06:40:00,
2013-03-18 02:46:00,59.9,58.5,30.03,ESE,120,0.0,0.0,95,0.00,,CLR,0.00,VWS V14.01,2013-03-18 06:46:00,
2013-03-18 02:51:00,59.9,58.5,30.03,ESE,120,0.0,0.0,95,0.00,,CLR,0.00,VWS V14.01,2013-03-18 06:51:00,
2013-03-18 02:56:00,59.9,58.8,30.02,ESE,120,0.0,0.0,96,0.00,,CLR,0.00,VWS V14.01,2013-03-18 06:56:00,
2013-03-18 03:01:00,59.7,58.6,30.03,ESE,119,0.0,0.0,96,0.00,,CLR,0.00,VWS V14.01,2013-03-18 07:01:00,
2013-03-18 03:06:00,59.5,58.4,30.02,ESE,120,0.0,0.0,96,0.00,,CLR,0.00,VWS V14.01,2013-03-18 07:06:00,
2013-03-18 03:12:00,59.4,58.3,30.02,ESE,119,0.0,0.0,96,0.00,,CLR,0.00,VWS V14.01,2013-03-18 07:12:00,
2013-03-18 03:17:00,59.3,58.2,30.01,ESE,120,0.0,0.0,96,0.00,,CLR,0.00,VWS V14.01,2013-03-18 07:17:00,
2013-03-18 03:22:00,59.2,58.1,30.01,ESE,120,0.0,0.0,96,0.00,,CLR,0.00,VWS V14.01,2013-03-18 07:22:00,
2013-03-18 03:27:00,59.1,58.0,30.01,ESE,120,0.0,0.0,96,0.00,,CLR,0.00,VWS V14.01,2013-03-18 07:27:00,
2013-03-18 03:32:00,59.4,58.3,30.01,ESE,120,0.0,0.0,96,0.00,,CLR,0.00,VWS V14.01,2013-03-18 07:32:00,
2013-03-18 03:37:00,59.7,58.6,30.01,ESE,119,0.0,0.0,96,0.00,,CLR,0.00,VWS V14.01,2013-03-18 07:37:00,
2013-03-18 03:42:00,59.8,58.7,30.01,ESE,119,0.0,0.0,96,0.00,,CLR,0.00,VWS V14.01,2013-03-18 07:42:00,
2013-03-18 03:47:00,59.7,58.6,30.01,ESE,120,0.0,0.0,96,0.00,,CLR,0.00,VWS V14.01,2013-03-18 07:47:00,
2013-03-18 03:52:00,59.6,58.5,30.02,ESE,120,0.0,0.0,96,0.00,,CLR,0.00,VWS V14.01,2013-03-18 07:52:00,
2013-03-18 03:58:00,59.6,58.5,30.02,ESE,120,0.0,0.0,96,0.00,,CLR,0.00,VWS V14.01,2013-03-18 07:58:00,
2013-03-18 04:03:00,59.6,58.8,30.02,ESE,120,0.0,0.0,97,0.00,,CLR,0.00,VWS V14.01,2013-03-18 08:03:00,
2013-03-18 04:08:00,59.6,58.5,30.01,ESE,120,0.0,0.0,96,0.00,,CLR,0.00,VWS V14.01,2013-03-18 08:08:00,
2013-03-18 04:13:00,59.7,58.6,30.01,ESE,120,0.0,0.0,96,0.00,,CLR,0.00,VWS V14.01,2013-03-18 08:13:00,
2013-03-18 04:18:00,59.7,58.8,30.01,ESE,120,0.0,0.0,97,0.00,,CLR,0.00,VWS V14.01,2013-03-18 08:18:00,
2013-03-18 04:23:00,59.8,58.7,30.01,ESE,119,0.0,0.0,96,0.00,,CLR,0.00,VWS V14.01,2013-03-18 08:23:00,
2013-03-18 04:28:00,59.7,58.6,30.00,ESE,120,0.0,0.0,96,0.00,,CLR,0.00,VWS V14.01,2013-03-18 08:28:00,
2013-03-18 04:33:00,59.6,58.5,30.01,ESE,120,0.0,0.0,96,0.00,,CLR,0.00,VWS V14.01,2013-03-18 08:33:00,
2013-03-18 04:38:00,59.4,58.3,30.01,ESE,120,0.0,0.0,96,0.00,,CLR,0.00,VWS V14.01,2013-03-18 08:38:00,
2013-03-18 04:43:00,59.3,58.5,30.00,ESE,120,0.0,0.0,97,0.00,,CLR,0.00,VWS V14.01,2013-03-18 08:43:00,
2013-03-18 04:49:00,59.4,58.5,30.00,ESE,119,0.0,0.0,97,0.00,,CLR,0.00,VWS V14.01,2013-03-18 08:49:00,
2013-03-18 04:54:00,59.5,58.7,30.00,SE,140,0.0,0.0,97,0.00,,CLR,0.00,VWS V14.01,2013-03-18 08:54:00,
2013-03-18 04:59:00,59.5,58.7,29.99,SE,140,0.0,0.0,97,0.00,,CLR,0.00,VWS V14.01,2013-03-18 08:59:00,
2013-03-18 05:04:00,59.6,58.8,29.99,SE,142,0.0,0.0,97,0.00,,CLR,0.00,VWS V14.01,2013-03-18 09:04:00,
2013-03-18 05:09:00,59.6,58.8,30.00,SE,142,0.0,0.0,97,0.00,,CLR,0.00,VWS V14.01,2013-03-18 09:09:00,
2013-03-18 05:14:00,59.5,58.7,30.00,SE,142,0.0,0.0,97,0.00,,CLR,0.00,VWS V14.01,2013-03-18 09:14:00,
2013-03-18 05:19:00,59.3,58.5,30.00,SE,142,0.0,0.0,97,0.00,,CLR,0.00,VWS V14.01,2013-03-18 09:19:00,
2013-03-18 05:24:00,59.0,58.2,30.00,SE,141,0.0,0.0,97,0.00,,CLR,0.00,VWS V14.01,2013-03-18 09:24:00,
2013-03-18 05:30:00,59.1,58.2,30.00,SE,141,0.0,0.0,97,0.00,,CLR,0.00,VWS V14.01,2013-03-18 09:30:00,
2013-03-18 05:35:00,59.2,58.3,30.00,SE,142,0.0,0.0,97,0.00,,CLR,0.00,VWS V14.01,2013-03-18 09:35:00,
2013-03-18 05:40:00,59.4,58.5,30.01,SE,142,0.0,0.0,97,0.00,,CLR,0.00,VWS V14.01,2013-03-18 09:40:00,
2013-03-18 05:45:00,59.4,58.5,30.00,SE,142,0.0,0.0,97,0.00,,CLR,0.00,VWS V14.01,2013-03-18 09:45:00,
2013-03-18 05:50:00,59.4,58.5,30.01,SE,141,0.0,0.0,97,0.00,,CLR,0.00,VWS V14.01,2013-03-18 09:50:00,
2013-03-18 05:56:00,59.3,58.5,30.01,SE,141,0.0,0.0,97,0.00,,CLR,0.00,VWS V14.01,2013-03-18 09:56:00,
2013-03-18 06:01:00,58.9,58.0,30.01,SE,142,0.0,0.0,97,0.00,,CLR,0.00,VWS V14.01,2013-03-18 10:01:00,
2013-03-18 06:07:00,59.2,58.3,30.02,SE,142,0.0,0.0,97,0.00,,CLR,0.00,VWS V14.01,2013-03-18 10:07:00,
2013-03-18 06:12:00,59.4,58.5,30.02,SE,142,0.0,0.0,97,0.01,,CLR,0.01,VWS V14.01,2013-03-18 10:12:00,
2013-03-18 06:17:00,59.5,58.7,30.02,SE,141,0.0,0.0,97,0.01,,CLR,0.01,VWS V14.01,2013-03-18 10:17:00,
2013-03-18 06:22:00,59.6,58.8,30.02,SE,142,0.0,0.0,97,0.01,,CLR,0.01,VWS V14.01,2013-03-18 10:22:00,
2013-03-18 06:27:00,59.6,58.8,30.02,SE,142,0.0,0.0,97,0.01,,CLR,0.01,VWS V14.01,2013-03-18 10:27:00,
2013-03-18 06:32:00,59.7,58.8,30.03,SE,142,0.0,0.0,97,0.01,,CLR,0.01,VWS V14.01,2013-03-18 10:32:00,
2013-03-18 06:37:00,59.8,59.0,30.03,SE,141,0.0,0.0,97,0.01,,CLR,0.01,VWS V14.01,2013-03-18 10:37:00,
2013-03-18 06:43:00,59.8,59.0,30.03,SE,142,0.0,0.0,97,0.01,,CLR,0.01,VWS V14.01,2013-03-18 10:43:00,
2013-03-18 06:48:00,59.8,58.7,30.02,SE,142,0.0,0.0,96,0.01,,CLR,0.01,VWS V14.01,2013-03-18 10:48:00,
2013-03-18 06:53:00,59.9,58.8,30.02,SE,146,0.0,0.0,96,0.01,,CLR,0.01,VWS V14.01,2013-03-18 10:53:00,
2013-03-18 06:58:00,60.0,58.9,30.02,SSE,147,0.0,0.0,96,0.01,,CLR,0.01,VWS V14.01,2013-03-18 10:58:00,
2013-03-18 07:03:00,60.1,59.0,30.02,SSE,147,0.0,0.0,96,0.01,,-RA,0.01,VWS V14.01,2013-03-18 11:03:00,
2013-03-18 07:08:00,60.1,59.0,30.02,SSE,147,0.0,0.0,96,0.01,,-RA,0.01,VWS V14.01,2013-03-18 11:08:00,
2013-03-18 07:14:00,60.3,59.2,30.02,SSE,150,0.0,0.0,96,0.01,,-RA,0.01,VWS V14.01,2013-03-18 11:14:00,
2013-03-18 07:19:00,60.5,59.1,30.02,SSE,160,0.0,0.0,95,0.01,,-RA,0.01,VWS V14.01,2013-03-18 11:19:00,
2013-03-18 07:24:00,60.8,59.4,30.02,SSE,153,0.0,5.0,95,0.01,,-RA,0.01,VWS V14.01,2013-03-18 11:24:00,
2013-03-18 07:29:00,60.9,59.2,30.02,SE,139,4.0,5.0,94,0.01,,-RA,0.01,VWS V14.01,2013-03-18 11:29:00,
2013-03-18 07:34:00,61.0,59.3,30.01,SE,144,0.0,4.0,94,0.00,,-RA,0.01,VWS V14.01,2013-03-18 11:34:00,
2013-03-18 07:39:00,61.1,59.1,30.01,SE,133,0.0,4.0,93,0.00,,-RA,0.01,VWS V14.01,2013-03-18 11:39:00,
2013-03-18 07:44:00,61.1,59.1,30.02,SSE,149,0.0,4.0,93,0.00,,-RA,0.01,VWS V14.01,2013-03-18 11:44:00,
2013-03-18 07:50:00,61.2,59.2,30.02,SSE,149,0.0,4.0,93,0.00,,-RA,0.01,VWS V14.01,2013-03-18 11:50:00,
2013-03-18 07:55:00,61.2,59.2,30.02,SSE,149,0.0,4.0,93,0.00,,-RA,0.01,VWS V14.01,2013-03-18 11:55:00,
2013-03-18 08:00:00,61.3,59.3,30.03,SSE,149,0.0,0.0,93,0.00,,-RA,0.01,VWS V14.01,2013-03-18 12:00:00,
2013-03-18 08:05:00,61.3,59.3,30.04,SSE,149,0.0,0.0,93,0.00,,-RA,0.01,VWS V14.01,2013-03-18 12:05:00,
2013-03-18 08:10:00,61.3,59.3,30.04,SSE,149,0.0,0.0,93,0.00,,-RA,0.01,VWS V14.01,2013-03-18 12:10:00,
2013-03-18 08:15:00,61.4,59.4,30.04,SSE,151,0.0,0.0,93,0.00,,-RA,0.01,VWS V14.01,2013-03-18 12:15:00,
2013-03-18 08:20:00,61.5,59.5,30.04,West,270,0.0,0.0,93,0.00,,-RA,0.01,VWS V14.01,2013-03-18 12:20:00,
2013-03-18 08:25:00,61.6,59.6,30.04,West,269,0.0,0.0,93,0.00,,-RA,0.01,VWS V14.01,2013-03-18 12:25:00,
2013-03-18 08:30:00,61.8,59.8,30.04,West,270,0.0,0.0,93,0.00,,-RA,0.01,VWS V14.01,2013-03-18 12:30:00,
2013-03-18 08:36:00,62.2,60.2,30.04,West,270,0.0,0.0,93,0.00,,-RA,0.01,VWS V14.01,2013-03-18 12:36:00,
2013-03-18 08:41:00,62.7,60.3,30.03,South,188,0.0,1.0,92,0.00,,-RA,0.01,VWS V14.01,2013-03-18 12:41:00,
2013-03-18 08:46:00,62.9,60.5,30.03,SSE,153,2.0,2.0,92,0.00,,-RA,0.01,VWS V14.01,2013-03-18 12:46:00,
2013-03-18 08:51:00,62.9,60.2,30.03,SSE,148,4.0,5.0,91,0.00,,-RA,0.01,VWS V14.01,2013-03-18 12:51:00,
2013-03-18 08:56:00,63.0,60.3,30.03,SSE,147,1.0,5.0,91,0.00,,-RA,0.01,VWS V14.01,2013-03-18 12:56:00,
2013-03-18 09:01:00,63.0,60.3,30.03,ENE,67,0.0,0.0,91,0.00,,-RA,0.01,VWS V14.01,2013-03-18 13:01:00,
2013-03-18 09:07:00,63.1,60.4,30.03,ENE,74,0.0,0.0,91,0.00,,-RA,0.01,VWS V14.01,2013-03-18 13:07:00,
2013-03-18 09:12:00,63.3,60.6,30.04,ENE,76,0.0,1.0,91,0.00,,-RA,0.01,VWS V14.01,2013-03-18 13:12:00,
2013-03-18 09:17:00,63.6,61.2,30.04,NNE,22,0.0,1.0,92,0.00,,-RA,0.01,VWS V14.01,2013-03-18 13:17:00,
2013-03-18 09:22:00,63.8,60.8,30.05,SSE,152,0.0,1.0,90,0.00,,-RA,0.01,VWS V14.01,2013-03-18 13:22:00,
2013-03-18 09:27:00,64.1,61.1,30.05,SSE,149,1.0,4.0,90,0.00,,-RA,0.01,VWS V14.01,2013-03-18 13:27:00,
2013-03-18 09:32:00,64.5,61.8,30.04,SSE,165,0.0,2.0,91,0.00,,-RA,0.01,VWS V14.01,2013-03-18 13:32:00,
2013-03-18 09:37:00,65.1,62.1,30.04,SSE,168,0.0,2.0,90,0.00,,-RA,0.01,VWS V14.01,2013-03-18 13:37:00,
2013-03-18 09:42:00,65.6,62.0,30.05,South,172,0.0,5.0,88,0.00,,-RA,0.01,VWS V14.01,2013-03-18 13:42:00,
2013-03-18 09:47:00,65.8,62.5,30.05,SSW,201,3.0,5.0,89,0.00,,-RA,0.01,VWS V14.01,2013-03-18 13:47:00,
2013-03-18 09:53:00,66.2,62.5,30.05,SSW,201,4.0,5.0,88,0.00,,-RA,0.01,VWS V14.01,2013-03-18 13:53:00,
2013-03-18 09:58:00,66.4,62.4,30.05,SW,219,3.0,7.0,87,0.00,,-RA,0.01,VWS V14.01,2013-03-18 13:58:00,
2013-03-18 10:03:00,66.3,62.0,30.05,SSW,198,1.0,4.0,86,0.00,,-RA,0.01,VWS V14.01,2013-03-18 14:03:00,
2013-03-18 10:08:00,66.4,62.1,30.05,West,267,0.0,6.0,86,0.00,,-RA,0.01,VWS V14.01,2013-03-18 14:08:00,
2013-03-18 10:13:00,66.7,62.4,30.05,SSW,195,3.0,6.0,86,0.00,,-RA,0.01,VWS V14.01,2013-03-18 14:13:00,
2013-03-18 10:18:00,67.0,63.3,30.06,SSW,192,0.0,6.0,88,0.00,,-RA,0.01,VWS V14.01,2013-03-18 14:18:00,
2013-03-18 10:23:00,67.3,63.0,30.06,SSW,205,5.0,6.0,86,0.00,,-RA,0.01,VWS V14.01,2013-03-18 14:23:00,
2013-03-18 10:28:00,68.4,63.7,30.06,SW,221,2.0,6.0,85,0.00,,-RA,0.01,VWS V14.01,2013-03-18 14:28:00,
2013-03-18 10:33:00,69.6,63.9,30.06,South,190,2.0,6.0,82,0.00,,-RA,0.01,VWS V14.01,2013-03-18 14:33:00,
2013-03-18 10:38:00,69.5,63.4,30.06,South,186,3.0,7.0,81,0.00,,-RA,0.01,VWS V14.01,2013-03-18 14:38:00,
2013-03-18 10:43:00,69.6,63.9,30.06,SSW,195,3.0,8.0,82,0.00,,-RA,0.01,VWS V14.01,2013-03-18 14:43:00,
2013-03-18 10:49:00,70.3,64.2,30.06,South,171,4.0,10.0,81,0.00,,-RA,0.01,VWS V14.01,2013-03-18 14:49:00,
2013-03-18 10:54:00,71.0,64.5,30.06,South,182,2.0,10.0,80,0.00,,-RA,0.01,VWS V14.01,2013-03-18 14:54:00,
2013-03-18 10:59:00,72.0,65.5,30.06,South,189,5.0,10.0,80,0.00,,-RA,0.01,VWS V14.01,2013-03-18 14:59:00,
2013-03-18 11:04:00,72.7,65.4,30.06,WSW,252,3.0,8.0,78,0.00,,-RA,0.01,VWS V14.01,2013-03-18 15:04:00,
2013-03-18 11:09:00,72.9,64.9,30.06,SSW,213,6.0,11.0,76,0.00,,-RA,0.01,VWS V14.01,2013-03-18 15:09:00,
2013-03-18 11:14:00,73.3,65.7,30.06,South,182,5.0,11.0,77,0.00,,-RA,0.01,VWS V14.01,2013-03-18 15:14:00,
2013-03-18 11:19:00,72.9,64.9,30.05,South,171,4.0,11.0,76,0.00,,-RA,0.01,VWS V14.01,2013-03-18 15:19:00,
2013-03-18 11:24:00,72.6,64.6,30.05,SSW,213,6.0,11.0,76,0.00,,-RA,0.01,VWS V14.01,2013-03-18 15:24:00,
2013-03-18 11:29:00,72.5,64.5,30.06,SSW,210,5.0,11.0,76,0.00,,-RA,0.01,VWS V14.01,2013-03-18 15:29:00,
2013-03-18 11:34:00,72.9,64.9,30.05,South,185,6.0,10.0,76,0.00,,-RA,0.01,VWS V14.01,2013-03-18 15:34:00,
2013-03-18 11:39:00,73.3,65.3,30.05,SSW,213,6.0,10.0,76,0.00,,-RA,0.01,VWS V14.01,2013-03-18 15:39:00,
2013-03-18 11:44:00,73.7,65.3,30.05,SSW,205,0.0,10.0,75,0.00,,-RA,0.01,VWS V14.01,2013-03-18 15:44:00,
2013-03-18 11:49:00,73.7,65.3,30.05,SSW,206,0.0,10.0,75,0.00,,-RA,0.01,VWS V14.01,2013-03-18 15:49:00,
2013-03-18 11:54:00,73.5,65.1,30.04,SSW,199,6.0,10.0,75,0.00,,-RA,0.01,VWS V14.01,2013-03-18 15:54:00,
2013-03-18 11:59:00,73.1,64.7,30.03,SW,222,0.0,10.0,75,0.00,,-RA,0.01,VWS V14.01,2013-03-18 15:59:00,
2013-03-18 12:05:00,73.2,65.2,30.04,SSW,197,5.0,5.0,76,0.00,,-RA,0.01,VWS V14.01,2013-03-18 16:05:00,
2013-03-18 12:10:00,73.4,66.5,30.04,SW,232,0.0,6.0,79,0.00,,-RA,0.01,VWS V14.01,2013-03-18 16:10:00,
2013-03-18 12:15:00,74.0,65.6,30.04,WSW,238,0.0,6.0,75,0.00,,-RA,0.01,VWS V14.01,2013-03-18 16:15:00,
2013-03-18 12:20:00,75.5,65.8,30.03,SSW,208,4.0,10.0,72,0.00,,-RA,0.01,VWS V14.01,2013-03-18 16:20:00,
2013-03-18 12:25:00,75.8,64.9,30.03,South,169,6.0,10.0,69,0.00,,-RA,0.01,VWS V14.01,2013-03-18 16:25:00,
2013-03-18 12:30:00,75.5,64.6,30.03,SW,227,2.0,3.0,69,0.00,,-RA,0.01,VWS V14.01,2013-03-18 16:30:00,
2013-03-18 12:35:00,75.0,64.2,30.03,SW,223,4.0,9.0,69,0.00,,-RA,0.01,VWS V14.01,2013-03-18 16:35:00,
2013-03-18 12:40:00,74.6,64.2,30.03,South,183,6.0,10.0,70,0.00,,-RA,0.01,VWS V14.01,2013-03-18 16:40:00,
2013-03-18 12:45:00,74.2,64.6,30.03,SW,215,6.0,10.0,72,0.00,,-RA,0.01,VWS V14.01,2013-03-18 16:45:00,
2013-03-18 12:50:00,74.0,64.4,30.03,WSW,241,7.0,10.0,72,0.00,,-RA,0.01,VWS V14.01,2013-03-18 16:50:00,
2013-03-18 12:55:00,73.9,64.7,30.03,SW,222,0.0,10.0,73,0.00,,-RA,0.01,VWS V14.01,2013-03-18 16:55:00,
2013-03-18 13:00:00,74.2,64.6,30.03,South,184,3.0,4.0,72,0.00,,-RA,0.01,VWS V14.01,2013-03-18 17:00:00,
2013-03-18 13:05:00,74.7,64.7,30.03,SSW,203,2.0,7.0,71,0.00,,-RA,0.01,VWS V14.01,2013-03-18 17:05:00,
2013-03-18 13:10:00,75.0,64.6,30.03,SSW,199,5.0,7.0,70,0.00,,-RA,0.01,VWS V14.01,2013-03-18 17:10:00,
2013-03-18 13:15:00,74.9,64.5,30.03,SSW,205,2.0,8.0,70,0.00,,-RA,0.01,VWS V14.01,2013-03-18 17:15:00,
2013-03-18 13:20:00,75.0,64.6,30.02,SSW,202,6.0,8.0,70,0.00,,-RA,0.01,VWS V14.01,2013-03-18 17:20:00,
2013-03-18 13:25:00,75.2,64.8,30.02,South,189,3.0,12.0,70,0.00,,-RA,0.01,VWS V14.01,2013-03-18 17:25:00,
2013-03-18 13:30:00,75.9,65.0,30.01,SSW,205,0.0,4.0,69,0.00,,-RA,0.01,VWS V14.01,2013-03-18 17:30:00,
2013-03-18 13:36:00,76.3,65.4,30.01,SSE,156,0.0,7.0,69,0.00,,-RA,0.01,VWS V14.01,2013-03-18 17:36:00,
2013-03-18 13:41:00,76.6,65.3,30.02,SW,234,0.0,7.0,68,0.00,,-RA,0.01,VWS V14.01,2013-03-18 17:41:00,
2013-03-18 13:46:00,77.3,65.1,30.01,SW,230,0.0,7.0,66,0.00,,-RA,0.01,VWS V14.01,2013-03-18 17:46:00,
2013-03-18 13:51:00,77.4,65.2,30.01,SSW,213,6.0,9.0,66,0.00,,-RA,0.01,VWS V14.01,2013-03-18 17:51:00,
2013-03-18 13:56:00,77.0,64.8,30.00,WSW,240,0.0,9.0,66,0.00,,-RA,0.01,VWS V14.01,2013-03-18 17:56:00,
2013-03-18 14:02:00,77.3,64.6,30.00,West,263,6.0,10.0,65,0.00,,-RA,0.01,VWS V14.01,2013-03-18 18:02:00,
2013-03-18 14:07:00,77.3,65.1,30.00,South,170,4.0,10.0,66,0.00,,-RA,0.01,VWS V14.01,2013-03-18 18:07:00,
2013-03-18 14:12:00,77.2,64.5,29.99,SSE,159,9.0,13.0,65,0.00,,-RA,0.01,VWS V14.01,2013-03-18 18:12:00,
2013-03-18 14:17:00,77.0,64.8,29.99,SSW,202,0.0,13.0,66,0.00,,-RA,0.01,VWS V14.01,2013-03-18 18:17:00,
2013-03-18 14:22:00,77.4,65.2,29.99,WSW,249,4.0,13.0,66,0.00,,-RA,0.01,VWS V14.01,2013-03-18 18:22:00,
2013-03-18 14:27:00,77.5,64.4,29.99,SW,222,4.0,13.0,64,0.00,,-RA,0.01,VWS V14.01,2013-03-18 18:27:00,
2013-03-18 14:32:00,77.4,64.7,29.98,SW,218,0.0,5.0,65,0.00,,-RA,0.01,VWS V14.01,2013-03-18 18:32:00,
2013-03-18 14:37:00,77.2,64.5,29.98,WSW,242,2.0,7.0,65,0.00,,-RA,0.01,VWS V14.01,2013-03-18 18:37:00,
2013-03-18 14:42:00,77.5,65.3,29.98,SSW,192,0.0,7.0,66,0.00,,-RA,0.01,VWS V14.01,2013-03-18 18:42:00,
2013-03-18 14:47:00,77.6,64.5,29.97,West,268,4.0,8.0,64,0.00,,-RA,0.01,VWS V14.01,2013-03-18 18:47:00,
2013-03-18 14:52:00,77.8,64.2,29.97,SSE,148,0.0,8.0,63,0.00,,-RA,0.01,VWS V14.01,2013-03-18 18:52:00,
2013-03-18 14:58:00,78.7,65.1,29.97,SW,214,4.0,8.0,63,0.00,,-RA,0.01,VWS V14.01,2013-03-18 18:58:00,
2013-03-18 15:03:00,79.9,65.3,29.97,South,169,7.0,11.0,61,0.00,,-RA,0.01,VWS V14.01,2013-03-18 19:03:00,
2013-03-18 15:08:00,80.9,65.2,29.96,South,184,0.0,11.0,59,0.00,,-RA,0.01,VWS V14.01,2013-03-18 19:08:00,
2013-03-18 15:13:00,80.4,65.7,29.96,SSW,192,7.0,12.0,61,0.00,,-RA,0.01,VWS V14.01,2013-03-18 19:13:00,
2013-03-18 15:18:00,79.5,64.4,29.96,SW,221,0.0,12.0,60,0.00,,-RA,0.01,VWS V14.01,2013-03-18 19:18:00,
2013-03-18 15:23:00,78.9,64.3,29.96,South,176,5.0,12.0,61,0.00,,-RA,0.01,VWS V14.01,2013-03-18 19:23:00,
2013-03-18 15:28:00,78.6,64.0,29.95,South,173,8.0,12.0,61,0.00,,-RA,0.01,VWS V14.01,2013-03-18 19:28:00,
2013-03-18 15:33:00,78.6,64.0,29.95,SSW,203,5.0,10.0,61,0.00,,-RA,0.01,VWS V14.01,2013-03-18 19:33:00,
2013-03-18 15:39:00,78.9,64.8,29.95,SW,224,0.0,10.0,62,0.00,,-RA,0.01,VWS V14.01,2013-03-18 19:39:00,
2013-03-18 15:44:00,78.7,64.1,29.95,West,259,0.0,10.0,61,0.00,,-RA,0.01,VWS V14.01,2013-03-18 19:44:00,
2013-03-18 15:49:00,78.6,64.5,29.94,SW,218,7.0,10.0,62,0.00,,-RA,0.01,VWS V14.01,2013-03-18 19:49:00,
2013-03-18 15:54:00,78.1,64.5,29.94,South,190,2.0,10.0,63,0.00,,-RA,0.01,VWS V14.01,2013-03-18 19:54:00,
2013-03-18 15:59:00,78.3,64.7,29.94,SSW,211,7.0,10.0,63,0.00,,-RA,0.01,VWS V14.01,2013-03-18 19:59:00,
2013-03-18 16:04:00,79.1,64.5,29.94,SW,227,5.0,8.0,61,0.00,,-RA,0.01,VWS V14.01,2013-03-18 20:04:00,
2013-03-18 16:09:00,78.4,63.8,29.94,SSW,198,1.0,8.0,61,0.00,,-RA,0.01,VWS V14.01,2013-03-18 20:09:00,
2013-03-18 16:14:00,78.7,64.1,29.93,South,178,4.0,9.0,61,0.00,,-RA,0.01,VWS V14.01,2013-03-18 20:14:00,
2013-03-18 16:20:00,78.6,64.5,29.93,SW,229,7.0,11.0,62,0.00,,-RA,0.01,VWS V14.01,2013-03-18 20:20:00,
2013-03-18 16:25:00,78.4,64.3,29.93,SW,215,10.0,11.0,62,0.00,,-RA,0.01,VWS V14.01,2013-03-18 20:25:00,
2013-03-18 16:30:00,78.1,64.0,29.94,WSW,242,5.0,8.0,62,0.00,,-RA,0.01,VWS V14.01,2013-03-18 20:30:00,
2013-03-18 16:35:00,77.9,64.3,29.94,WSW,247,7.0,10.0,63,0.00,,-RA,0.01,VWS V14.01,2013-03-18 20:35:00,
2013-03-18 16:40:00,77.7,64.1,29.93,WSW,248,5.0,10.0,63,0.00,,-RA,0.01,VWS V14.01,2013-03-18 20:40:00,
2013-03-18 16:45:00,77.9,64.3,29.93,WSW,249,4.0,10.0,63,0.00,,-RA,0.01,VWS V14.01,2013-03-18 20:45:00,
2013-03-18 16:50:00,77.9,64.3,29.94,SW,214,0.0,10.0,63,0.00,,-RA,0.01,VWS V14.01,2013-03-18 20:50:00,
2013-03-18 16:55:00,78.3,64.7,29.94,WSW,252,0.0,10.0,63,0.00,,-RA,0.01,VWS V14.01,2013-03-18 20:55:00,
2013-03-18 17:01:00,78.8,65.2,29.94,WSW,240,0.0,8.0,63,0.00,,-RA,0.01,VWS V14.01,2013-03-18 21:01:00,
2013-03-18 17:06:00,78.0,64.4,29.94,WNW,294,2.0,8.0,63,0.00,,-RA,0.01,VWS V14.01,2013-03-18 21:06:00,
2013-03-18 17:11:00,77.4,64.3,29.94,SW,234,0.0,9.0,64,0.00,,-RA,0.01,VWS V14.01,2013-03-18 21:11:00,
2013-03-18 17:17:00,77.5,64.4,29.94,SSW,192,5.0,9.0,64,0.00,,-RA,0.01,VWS V14.01,2013-03-18 21:17:00,
2013-03-18 17:22:00,77.6,64.5,29.94,SSW,213,3.0,9.0,64,0.00,,-RA,0.01,VWS V14.01,2013-03-18 21:22:00,
2013-03-18 17:27:00,77.4,64.3,29.93,SSW,204,3.0,9.0,64,0.00,,-RA,0.01,VWS V14.01,2013-03-18 21:27:00,
2013-03-18 17:32:00,77.1,64.4,29.93,South,175,4.0,10.0,65,0.00,,-RA,0.01,VWS V14.01,2013-03-18 21:32:00,
2013-03-18 17:37:00,76.8,64.2,29.92,SSE,166,6.0,10.0,65,0.00,,-RA,0.01,VWS V14.01,2013-03-18 21:37:00,
2013-03-18 17:42:00,76.6,64.0,29.92,South,182,1.0,10.0,65,0.00,,-RA,0.01,VWS V14.01,2013-03-18 21:42:00,
2013-03-18 17:47:00,76.7,64.5,29.93,SW,218,6.0,10.0,66,0.00,,-RA,0.01,VWS V14.01,2013-03-18 21:47:00,
2013-03-18 17:52:00,76.6,64.4,29.93,SW,217,0.0,10.0,66,0.00,,-RA,0.01,VWS V14.01,2013-03-18 21:52:00,
2013-03-18 18:00:00,76.5,64.3,29.93,SW,236,3.0,10.0,66,0.00,,-RA,0.01,VWS V14.01,2013-03-18 22:00:00,
2013-03-18 18:05:00,76.4,64.2,29.92,WSW,240,1.0,4.0,66,0.00,,-RA,0.01,VWS V14.01,2013-03-18 22:05:00,
2013-03-18 18:10:00,76.3,64.6,29.92,WSW,240,0.0,4.0,67,0.00,,-RA,0.01,VWS V14.01,2013-03-18 22:10:00,
2013-03-18 18:15:00,76.3,64.6,29.92,WSW,242,0.0,4.0,67,0.00,,-RA,0.01,VWS V14.01,2013-03-18 22:15:00,
2013-03-18 18:20:00,76.1,64.4,29.92,WSW,253,0.0,4.0,67,0.00,,-RA,0.01,VWS V14.01,2013-03-18 22:20:00,
2013-03-18 18:25:00,76.0,64.7,29.92,WSW,253,0.0,4.0,68,0.00,,-RA,0.01,VWS V14.01,2013-03-18 22:25:00,
2013-03-18 18:30:00,75.8,64.5,29.92,WSW,253,0.0,0.0,68,0.00,,-RA,0.01,VWS V14.01,2013-03-18 22:30:00,
2013-03-18 18:36:00,75.8,64.5,29.92,SW,230,0.0,1.0,68,0.00,,-RA,0.01,VWS V14.01,2013-03-18 22:36:00,
2013-03-18 18:41:00,75.7,64.4,29.92,SW,230,0.0,1.0,68,0.00,,-RA,0.01,VWS V14.01,2013-03-18 22:41:00,
2013-03-18 18:46:00,75.8,64.5,29.93,SW,230,0.0,1.0,68,0.00,,-RA,0.01,VWS V14.01,2013-03-18 22:46:00,
2013-03-18 18:51:00,75.6,64.3,29.93,SW,234,0.0,1.0,68,0.00,,-RA,0.01,VWS V14.01,2013-03-18 22:51:00,
2013-03-18 18:56:00,75.5,64.6,29.93,SW,234,0.0,1.0,69,0.00,,-RA,0.01,VWS V14.01,2013-03-18 22:56:00,
2013-03-18 19:01:00,75.3,64.4,29.93,SW,234,0.0,0.0,69,0.00,,CLR,0.01,VWS V14.01,2013-03-18 23:01:00,
2013-03-18 19:06:00,75.0,64.6,29.93,SW,233,0.0,0.0,70,0.00,,CLR,0.01,VWS V14.01,2013-03-18 23:06:00,
2013-03-18 19:11:00,75.0,64.6,29.93,SSW,200,0.0,6.0,70,0.00,,CLR,0.01,VWS V14.01,2013-03-18 23:11:00,
2013-03-18 19:16:00,74.7,64.3,29.93,SSW,207,4.0,6.0,70,0.00,,CLR,0.01,VWS V14.01,2013-03-18 23:16:00,
2013-03-18 19:22:00,74.6,64.6,29.93,SSW,194,0.0,6.0,71,0.00,,CLR,0.01,VWS V14.01,2013-03-18 23:22:00,
2013-03-18 19:27:00,74.4,64.4,29.92,SSW,194,0.0,6.0,71,0.00,,CLR,0.01,VWS V14.01,2013-03-18 23:27:00,
2013-03-18 19:32:00,74.1,64.5,29.93,SSW,194,0.0,1.0,72,0.00,,CLR,0.01,VWS V14.01,2013-03-18 23:32:00,
2013-03-18 19:37:00,73.9,64.7,29.93,SSW,211,0.0,3.0,73,0.00,,CLR,0.01,VWS V14.01,2013-03-18 23:37:00,
2013-03-18 19:42:00,73.8,64.6,29.93,SW,233,0.0,3.0,73,0.00,,CLR,0.01,VWS V14.01,2013-03-18 23:42:00,
2013-03-18 19:47:00,73.7,64.5,29.94,SW,233,0.0,3.0,73,0.00,,CLR,0.01,VWS V14.01,2013-03-18 23:47:00,
2013-03-18 19:52:00,73.7,64.5,29.94,SW,233,0.0,3.0,73,0.00,,CLR,0.01,VWS V14.01,2013-03-18 23:52:00,
2013-03-18 19:57:00,73.5,64.7,29.93,SW,232,0.0,3.0,74,0.00,,CLR,0.01,VWS V14.01,2013-03-18 23:57:00,
2013-03-18 20:02:00,73.0,64.6,29.92,South,173,1.0,1.0,75,0.00,,CLR,0.01,VWS V14.01,2013-03-19 00:02:00,
2013-03-18 20:07:00,72.7,64.3,29.92,South,170,0.0,4.0,75,0.00,,CLR,0.01,VWS V14.01,2013-03-19 00:07:00,
2013-03-18 20:12:00,72.7,64.3,29.93,South,170,0.0,4.0,75,0.00,,CLR,0.01,VWS V14.01,2013-03-19 00:12:00,
2013-03-18 20:18:00,72.7,64.7,29.93,South,169,0.0,4.0,76,0.00,,CLR,0.01,VWS V14.01,2013-03-19 00:18:00,
2013-03-18 20:23:00,72.5,64.5,29.93,South,170,0.0,4.0,76,0.00,,CLR,0.01,VWS V14.01,2013-03-19 00:23:00,
2013-03-18 20:28:00,72.2,64.6,29.92,SSE,161,4.0,6.0,77,0.00,,CLR,0.01,VWS V14.01,2013-03-19 00:28:00,
2013-03-18 20:33:00,72.1,64.5,29.92,SSE,163,0.0,5.0,77,0.00,,CLR,0.01,VWS V14.01,2013-03-19 00:33:00,
2013-03-18 20:38:00,71.9,64.7,29.93,SSE,165,0.0,5.0,78,0.00,,CLR,0.01,VWS V14.01,2013-03-19 00:38:00,
2013-03-18 20:43:00,71.7,64.5,29.92,South,171,2.0,5.0,78,0.00,,CLR,0.01,VWS V14.01,2013-03-19 00:43:00,
2013-03-18 20:48:00,71.6,64.8,29.92,SSE,168,4.0,6.0,79,0.00,,CLR,0.01,VWS V14.01,2013-03-19 00:48:00,
2013-03-18 20:53:00,71.6,64.8,29.92,South,182,4.0,6.0,79,0.00,,CLR,0.01,VWS V14.01,2013-03-19 00:53:00,
2013-03-18 20:58:00,71.6,64.8,29.92,South,186,0.0,6.0,79,0.00,,CLR,0.01,VWS V14.01,2013-03-19 00:58:00,
2013-03-18 21:03:00,71.6,64.8,29.91,South,169,1.0,9.0,79,0.00,,CLR,0.01,VWS V14.01,2013-03-19 01:03:00,
2013-03-18 21:09:00,71.5,65.0,29.91,SSE,165,0.0,9.0,80,0.00,,CLR,0.01,VWS V14.01,2013-03-19 01:09:00,
2013-03-18 21:14:00,71.4,64.9,29.91,SSE,167,6.0,9.0,80,0.00,,CLR,0.01,VWS V14.01,2013-03-19 01:14:00,
2013-03-18 21:19:00,71.4,64.9,29.91,SSE,167,6.0,9.0,80,0.00,,CLR,0.01,VWS V14.01,2013-03-19 01:19:00,
2013-03-18 21:24:00,71.2,64.7,29.91,SSE,167,6.0,11.0,80,0.00,,CLR,0.01,VWS V14.01,2013-03-19 01:24:00,
2013-03-18 21:29:00,71.1,65.0,29.91,South,190,4.0,11.0,81,0.00,,CLR,0.01,VWS V14.01,2013-03-19 01:29:00,
2013-03-18 21:34:00,70.9,65.1,29.91,South,184,4.0,7.0,82,0.00,,CLR,0.01,VWS V14.01,2013-03-19 01:34:00,
2013-03-18 21:39:00,70.7,64.9,29.91,SSE,165,6.0,10.0,82,0.00,,CLR,0.01,VWS V14.01,2013-03-19 01:39:00,
2013-03-18 21:44:00,70.6,64.8,29.91,SSW,206,10.0,13.0,82,0.00,,CLR,0.01,VWS V14.01,2013-03-19 01:44:00,
2013-03-18 21:49:00,70.5,64.8,29.91,South,191,5.0,13.0,82,0.00,,CLR,0.01,VWS V14.01,2013-03-19 01:49:00,
2013-03-18 21:54:00,70.4,65.0,29.91,South,178,4.0,13.0,83,0.00,,CLR,0.01,VWS V14.01,2013-03-19 01:54:00,
2013-03-18 21:59:00,70.3,64.9,29.91,South,186,8.0,13.0,83,0.00,,CLR,0.01,VWS V14.01,2013-03-19 01:59:00,
2013-03-18 22:04:00,70.1,64.7,29.91,SSW,194,5.0,10.0,83,0.00,,CLR,0.01,VWS V14.01,2013-03-19 02:04:00,
2013-03-18 22:09:00,70.0,64.3,29.91,South,174,6.0,10.0,82,0.00,,CLR,0.01,VWS V14.01,2013-03-19 02:09:00,
2013-03-18 22:14:00,69.9,64.2,29.91,South,188,0.0,11.0,82,0.00,,CLR,0.01,VWS V14.01,2013-03-19 02:14:00,
2013-03-18 22:20:00,69.8,64.1,29.91,South,171,6.0,11.0,82,0.00,,CLR,0.01,VWS V14.01,2013-03-19 02:20:00,
2013-03-18 22:25:00,69.8,64.1,29.91,South,182,3.0,11.0,82,0.00,,CLR,0.01,VWS V14.01,2013-03-19 02:25:00,
2013-03-18 22:30:00,69.7,64.0,29.92,South,187,4.0,4.0,82,0.00,,CLR,0.01,VWS V14.01,2013-03-19 02:30:00,
2013-03-18 22:35:00,69.5,64.1,29.92,SSW,198,0.0,9.0,83,0.00,,CLR,0.01,VWS V14.01,2013-03-19 02:35:00,
2013-03-18 22:40:00,69.4,64.0,29.92,SSW,200,5.0,9.0,83,0.00,,CLR,0.01,VWS V14.01,2013-03-19 02:40:00,
2013-03-18 22:45:00,69.2,63.8,29.92,South,190,1.0,9.0,83,0.00,,CLR,0.01,VWS V14.01,2013-03-19 02:45:00,
2013-03-18 22:50:00,69.2,64.2,29.92,SSW,200,0.0,10.0,84,0.00,,CLR,0.01,VWS V14.01,2013-03-19 02:50:00,
2013-03-18 22:55:00,69.0,64.0,29.92,SSW,195,0.0,10.0,84,0.00,,CLR,0.01,VWS V14.01,2013-03-19 02:55:00,
2013-03-18 23:00:00,68.8,63.8,29.93,SSW,208,4.0,4.0,84,0.00,,CLR,0.01,VWS V14.01,2013-03-19 03:00:00,
2013-03-18 23:06:00,68.7,64.0,29.92,SSW,211,0.0,5.0,85,0.00,,CLR,0.01,VWS V14.01,2013-03-19 03:06:00,
2013-03-18 23:11:00,68.7,64.0,29.92,SSW,194,1.0,7.0,85,0.00,,CLR,0.01,VWS V14.01,2013-03-19 03:11:00,
2013-03-18 23:16:00,68.7,64.0,29.92,South,177,6.0,7.0,85,0.00,,CLR,0.01,VWS V14.01,2013-03-19 03:16:00,
2013-03-18 23:22:00,68.6,63.9,29.92,South,188,0.0,8.0,85,0.00,,CLR,0.01,VWS V14.01,2013-03-19 03:22:00,
2013-03-18 23:27:00,68.4,64.1,29.93,SSW,203,0.0,8.0,86,0.00,,CLR,0.01,VWS V14.01,2013-03-19 03:27:00,
2013-03-18 23:32:00,68.2,63.9,29.93,SSW,205,0.0,0.0,86,0.00,,CLR,0.01,VWS V14.01,2013-03-19 03:32:00,
2013-03-18 23:37:00,67.9,63.6,29.94,SSW,205,0.0,0.0,86,0.00,,CLR,0.01,VWS V14.01,2013-03-19 03:37:00,
2013-03-18 23:42:00,67.8,63.8,29.94,SSW,207,0.0,0.0,87,0.00,,CLR,0.01,VWS V14.01,2013-03-19 03:42:00,
2013-03-18 23:47:00,67.7,63.7,29.94,SSW,207,0.0,0.0,87,0.00,,CLR,0.01,VWS V14.01,2013-03-19 03:47:00,
2013-03-18 23:52:00,67.6,63.9,29.94,SSW,207,0.0,0.0,88,0.00,,CLR,0.01,VWS V14.01,2013-03-19 03:52:00,
2013-03-18 23:58:00,67.5,63.8,29.95,SSW,207,0.0,0.0,88,0.00,,CLR,0.01,VWS V14.01,2013-03-19 03:58:00,